Aérodrome :
LOGIN :

S'inscrire | Disclaimer

   EN    FR    IT 

 










Légende :    VFR   VFR Marginal   IFR   IFR Intensif   IFR Très Intensif
Visi : 
Plafond : 
>= 8 km
>= 3000ft
5 à 8 km
1000 à 3000 ft
1500m à 5 km
500 à 1000 ft
800 à 1500m
200 à 500 ft
< 800m
< 200 ft
Symboles :   Orages  Brouillard  Fortes neiges  Fortes précipitations  Vent > 20 kt
SIGMETs :   Divers  Orages  Givrage  Turbulence  Onde Orograph.  Cendres Volcan.






- Altitude de l'aérodrome : 154 ft
- Code IATA : SZZ


EPSC - Szczecin Goleniow

DERNIER METAR :
  • 190730Z 15008KT 9999 FEW040 10/08 Q1011

METARs EXPIRÉS :
  • 190700Z 15007KT CAVOK 09/08 Q1011
  • 190630Z 15008KT CAVOK 09/08 Q1011
  • 190600Z 15008KT CAVOK 09/07 Q1011
  • 190530Z 15007KT CAVOK 09/07 Q1011
  • 190500Z 15007KT CAVOK 09/07 Q1011

TAF TAF EPSC
Valide du 19 à 06h jusqu'au 20 à 06h UTC


190530Z 1906/2006 16010KT CAVOK
TEMPO 1909/1918 -RA BKN012
PROB40 1911/1918 4000 RADZ BR BKN006
BECMG 2000/2002 VRB02KT
PROB40 2000/2006 3000 DZ BR BKN004



MET'MAP, la Météo Aéronautique d'un coup d'oeil ! - Copyright ORBIFLY Décembre 2007 - Disclaimer

ORBIFLY MET'MAP TEAM :

Programmation & Développement : Alexandra Zaïnal
Conception & Développement : Baudouin d'Aumeries
Co-Programmation & Développement : Marc-Olivier Méhu
Soutien technique & logistique : Manuel Goepfert

Contact : metmap@orbifly.com




SOURCES & CREDITS :

   NOAA